Time;durP1;ratioP1;P1;durP2;ratioP2;P2;SDS_P1;SDS_P2;PMS_P1;PMS_P2;Temp;Humidity;BMP_temperature;BMP_pressure;BME280_temperature;BME280_humidity;BME280_pressure;Samples;Min_cycle;Max_cycle;Signal;HPM_P1;HPM_P2
2023/07/02 00:01:06;;;;;;;3.70;2.27;;;;;;;;;;4993170;28;20483;-49
2023/07/02 00:03:33;;;;;;;3.70;1.80;;;;;;;;;;4993497;28;20526;-49
2023/07/02 00:06:00;;;;;;;2.87;2.30;;;;;;;;;;4992762;28;20543;-48
2023/07/02 00:08:27;;;;;;;2.70;2.10;;;;;;;;;;4993023;28;20440;-49
2023/07/02 00:10:55;;;;;;;4.93;2.07;;;;;;;;;;4993126;28;20475;-48
2023/07/02 00:13:23;;;;;;;3.30;1.80;;;;;;;;;;4992882;28;20530;-50
2023/07/02 00:15:50;;;;;;;2.40;1.90;;;;;;;;;;4992079;28;20571;-48
2023/07/02 00:18:18;;;;;;;3.20;2.30;;;;;;;;;;4992947;28;20567;-49
2023/07/02 00:20:46;;;;;;;3.87;2.10;;;;;;;;;;4992727;28;20531;-49
2023/07/02 00:23:13;;;;;;;3.63;1.97;;;;;;;;;;4992697;28;20945;-49
2023/07/02 00:25:40;;;;;;;2.87;1.97;;;;;;;;;;4992251;28;20547;-49
2023/07/02 00:28:07;;;;;;;3.77;1.90;;;;;;;;;;4992569;28;20474;-49
2023/07/02 00:30:36;;;;;;;5.67;1.87;;;;;;;;;;4992661;28;20444;-48
2023/07/02 00:33:03;;;;;;;4.37;2.40;;;;;;;;;;4992122;28;20535;-49
2023/07/02 00:35:31;;;;;;;3.70;2.10;;;;;;;;;;4992518;28;20578;-48
2023/07/02 00:37:58;;;;;;;2.60;1.70;;;;;;;;;;4992393;28;20559;-49
2023/07/02 00:40:25;;;;;;;3.80;2.03;;;;;;;;;;4992485;28;20539;-49
2023/07/02 00:42:52;;;;;;;3.80;2.07;;;;;;;;;;4992355;28;20535;-49
2023/07/02 00:45:20;;;;;;;3.30;2.43;;;;;;;;;;4992138;28;20479;-49
2023/07/02 00:47:48;;;;;;;3.50;2.27;;;;;;;;;;4992332;28;20492;-49
2023/07/02 00:50:16;;;;;;;3.07;2.33;;;;;;;;;;4992266;28;20895;-50
2023/07/02 00:52:43;;;;;;;3.33;2.00;;;;;;;;;;4992197;28;20573;-50
2023/07/02 00:55:10;;;;;;;2.80;1.90;;;;;;;;;;4991895;28;20546;-49
2023/07/02 00:57:40;;;;;;;3.70;2.63;;;;;;;;;;4992077;28;20570;-49
2023/07/02 01:00:09;;;;;;;2.73;2.20;;;;;;;;;;4992204;28;20463;-49
2023/07/02 01:02:38;;;;;;;4.40;2.50;;;;;;;;;;4992128;28;20445;-50
2023/07/02 01:05:07;;;;;;;2.70;2.00;;;;;;;;;;4992021;28;20472;-49
2023/07/02 01:07:34;;;;;;;4.00;2.20;;;;;;;;;;4991642;28;20856;-48
2023/07/02 01:10:01;;;;;;;2.87;2.07;;;;;;;;;;4992116;28;20534;-49
2023/07/02 01:12:29;;;;;;;2.80;2.17;;;;;;;;;;4992171;28;20476;-49
2023/07/02 01:14:58;;;;;;;3.03;2.23;;;;;;;;;;4991530;28;20566;-49
2023/07/02 01:17:25;;;;;;;2.63;1.83;;;;;;;;;;4991168;28;20574;-48
2023/07/02 01:19:58;;;;;;;4.60;3.20;;;;;;;;;;4992228;28;20451;-48
2023/07/02 01:22:26;;;;;;;3.13;2.00;;;;;;;;;;4992094;28;20476;-48
2023/07/02 01:24:54;;;;;;;3.70;2.10;;;;;;;;;;4991820;28;20503;-49
2023/07/02 01:27:22;;;;;;;5.70;2.20;;;;;;;;;;4991823;28;20440;-49
2023/07/02 01:29:52;;;;;;;3.93;2.10;;;;;;;;;;4991646;28;20532;-49
2023/07/02 01:32:20;;;;;;;2.87;1.83;;;;;;;;;;4991372;28;20540;-49
2023/07/02 01:34:48;;;;;;;2.63;1.80;;;;;;;;;;4991511;28;21015;-48
2023/07/02 01:37:18;;;;;;;3.13;2.03;;;;;;;;;;4991687;28;20476;-49
2023/07/02 01:39:45;;;;;;;3.33;3.00;;;;;;;;;;4990927;28;20527;-49
2023/07/02 01:42:14;;;;;;;4.33;2.27;;;;;;;;;;4991536;28;20511;-49
2023/07/02 01:44:41;;;;;;;6.33;1.97;;;;;;;;;;4991652;28;20479;-49
2023/07/02 01:47:09;;;;;;;2.90;2.20;;;;;;;;;;4991300;28;20447;-49
2023/07/02 01:49:37;;;;;;;3.73;2.40;;;;;;;;;;4991176;28;20949;-49
2023/07/02 01:52:05;;;;;;;3.00;1.87;;;;;;;;;;4991145;28;20840;-49
2023/07/02 01:54:34;;;;;;;2.80;2.27;;;;;;;;;;4991725;28;20518;-48
2023/07/02 01:57:02;;;;;;;4.40;1.97;;;;;;;;;;4991195;28;20475;-50
2023/07/02 01:59:29;;;;;;;2.53;1.80;;;;;;;;;;4991474;28;20531;-49
2023/07/02 02:01:56;;;;;;;3.00;2.27;;;;;;;;;;4990887;28;20539;-50
2023/07/02 02:04:23;;;;;;;2.77;2.10;;;;;;;;;;4991555;28;20494;-49
2023/07/02 02:06:52;;;;;;;3.93;2.23;;;;;;;;;;4991141;28;20530;-49
2023/07/02 02:09:19;;;;;;;3.70;2.13;;;;;;;;;;4991565;28;20567;-48
2023/07/02 02:11:49;;;;;;;2.60;1.90;;;;;;;;;;4991396;28;20920;-49
2023/07/02 02:14:16;;;;;;;2.83;1.83;;;;;;;;;;4994353;28;20506;-49
2023/07/02 02:16:46;;;;;;;3.67;2.23;;;;;;;;;;4994440;28;20476;-49
2023/07/02 02:19:14;;;;;;;3.63;2.17;;;;;;;;;;4995147;28;20490;-49
2023/07/02 02:21:41;;;;;;;2.90;2.23;;;;;;;;;;4995096;28;20451;-49
2023/07/02 02:24:09;;;;;;;2.87;2.10;;;;;;;;;;4995033;28;20526;-51
2023/07/02 02:26:36;;;;;;;4.97;2.40;;;;;;;;;;4994840;28;20478;-50
2023/07/02 02:29:04;;;;;;;4.37;2.63;;;;;;;;;;4995128;28;20473;-50
2023/07/02 02:31:32;;;;;;;2.70;2.20;;;;;;;;;;4994837;28;20491;-49
2023/07/02 02:33:59;;;;;;;2.30;1.73;;;;;;;;;;4994361;28;20686;-50
2023/07/02 02:36:26;;;;;;;4.23;2.70;;;;;;;;;;4994315;28;20495;-51
2023/07/02 02:38:53;;;;;;;2.40;1.80;;;;;;;;;;4994726;28;20515;-50
2023/07/02 02:41:21;;;;;;;3.10;2.60;;;;;;;;;;4994779;28;20593;-49
2023/07/02 02:43:48;;;;;;;4.60;2.67;;;;;;;;;;5011618;28;20522;-49
2023/07/02 02:46:21;;;;;;;3.80;2.90;;;;;;;;;;5013844;28;20533;-51
2023/07/02 02:48:48;;;;;;;5.27;2.40;;;;;;;;;;5013654;28;20446;-48
2023/07/02 02:51:16;;;;;;;3.40;2.63;;;;;;;;;;5014488;28;20479;-49
2023/07/02 02:53:43;;;;;;;3.90;2.60;;;;;;;;;;5013586;28;20451;-49
2023/07/02 02:56:10;;;;;;;3.20;2.47;;;;;;;;;;5013628;28;20493;-51
2023/07/02 02:58:38;;;;;;;4.13;2.97;;;;;;;;;;5013966;28;20569;-49
2023/07/02 03:01:10;;;;;;;3.30;2.30;;;;;;;;;;5014090;28;20556;-49
2023/07/02 03:03:43;;;;;;;2.60;1.70;;;;;;;;;;5013517;28;20451;-50
2023/07/02 03:06:11;;;;;;;3.87;2.27;;;;;;;;;;5013523;28;20462;-49
2023/07/02 03:08:38;;;;;;;4.27;2.73;;;;;;;;;;5014056;28;20466;-48
2023/07/02 03:11:05;;;;;;;4.43;2.40;;;;;;;;;;5014005;28;20444;-50
2023/07/02 03:13:32;;;;;;;4.10;2.67;;;;;;;;;;5013701;28;20475;-49
2023/07/02 03:16:00;;;;;;;3.93;2.87;;;;;;;;;;5013170;28;20551;-49
2023/07/02 03:18:27;;;;;;;2.90;2.17;;;;;;;;;;5013109;28;20562;-49
2023/07/02 03:20:56;;;;;;;4.03;2.60;;;;;;;;;;5013545;28;20877;-49
2023/07/02 03:23:23;;;;;;;3.37;2.40;;;;;;;;;;5013524;28;20446;-50
2023/07/02 03:25:50;;;;;;;3.40;2.90;;;;;;;;;;5013461;28;20499;-48
2023/07/02 03:28:18;;;;;;;2.80;2.23;;;;;;;;;;5013485;28;20872;-49
2023/07/02 03:30:45;;;;;;;2.53;2.07;;;;;;;;;;5013242;28;20483;-50
2023/07/02 03:33:12;;;;;;;3.87;2.60;;;;;;;;;;5013179;28;20471;-50
2023/07/02 03:35:39;;;;;;;6.20;2.67;;;;;;;;;;5013250;28;20576;-49
2023/07/02 03:38:08;;;;;;;3.50;2.47;;;;;;;;;;5012963;28;21046;-49
2023/07/02 03:40:35;;;;;;;4.10;3.50;;;;;;;;;;5013109;28;21018;-49
2023/07/02 03:43:02;;;;;;;3.30;2.70;;;;;;;;;;5013171;28;20956;-51
2023/07/02 03:45:29;;;;;;;3.93;3.00;;;;;;;;;;5013035;28;20502;-51
2023/07/02 03:47:57;;;;;;;3.43;2.67;;;;;;;;;;5012897;28;20486;-50
2023/07/02 03:50:24;;;;;;;3.87;3.23;;;;;;;;;;5013047;28;20531;-50
2023/07/02 03:52:51;;;;;;;4.93;2.47;;;;;;;;;;5012497;28;20539;-50
2023/07/02 03:55:20;;;;;;;2.80;2.30;;;;;;;;;;5012926;28;21026;-49
2023/07/02 03:57:48;;;;;;;4.07;2.87;;;;;;;;;;5012285;28;20493;-49
2023/07/02 04:00:15;;;;;;;3.33;2.63;;;;;;;;;;5013135;28;20547;-50
2023/07/02 04:02:42;;;;;;;4.17;2.50;;;;;;;;;;5012282;28;20502;-50
2023/07/02 04:05:10;;;;;;;3.47;2.60;;;;;;;;;;5012821;28;20551;-50
2023/07/02 04:07:37;;;;;;;3.13;2.40;;;;;;;;;;5012513;28;20527;-50
2023/07/02 04:10:04;;;;;;;2.97;2.23;;;;;;;;;;5012446;28;20447;-49
2023/07/02 04:12:33;;;;;;;3.37;2.80;;;;;;;;;;5012719;28;20535;-49
2023/07/02 04:15:00;;;;;;;2.80;2.13;;;;;;;;;;5012249;28;20545;-49
2023/07/02 04:17:27;;;;;;;3.50;2.77;;;;;;;;;;5011759;28;20485;-49
2023/07/02 04:19:55;;;;;;;3.60;2.60;;;;;;;;;;5012440;28;20914;-49
2023/07/02 04:22:23;;;;;;;3.00;2.70;;;;;;;;;;5012259;28;21029;-49
2023/07/02 04:24:50;;;;;;;4.10;2.33;;;;;;;;;;5012276;28;20873;-51
2023/07/02 04:27:18;;;;;;;3.67;3.20;;;;;;;;;;5012427;28;20512;-49
2023/07/02 04:29:46;;;;;;;3.30;2.20;;;;;;;;;;5012239;28;20449;-50
2023/07/02 04:32:14;;;;;;;3.40;2.53;;;;;;;;;;5011579;28;20494;-50
2023/07/02 04:34:41;;;;;;;3.87;2.70;;;;;;;;;;5012214;28;20521;-50
2023/07/02 04:37:08;;;;;;;2.80;2.40;;;;;;;;;;5011307;28;20489;-51
2023/07/02 04:39:36;;;;;;;3.53;2.53;;;;;;;;;;5012738;28;20573;-49
2023/07/02 04:42:03;;;;;;;3.87;2.80;;;;;;;;;;5012483;28;20439;-48
2023/07/02 04:44:30;;;;;;;5.20;3.10;;;;;;;;;;5011805;28;20467;-48
2023/07/02 04:46:59;;;;;;;3.33;2.60;;;;;;;;;;5011582;28;20501;-48
2023/07/02 04:49:27;;;;;;;3.80;2.57;;;;;;;;;;5012145;28;20526;-49
2023/07/02 04:51:54;;;;;;;4.27;3.00;;;;;;;;;;5011525;28;20596;-48
2023/07/02 04:54:22;;;;;;;3.50;2.73;;;;;;;;;;5012061;28;20528;-49
2023/07/02 04:56:50;;;;;;;4.33;3.07;;;;;;;;;;5011774;28;20530;-49
2023/07/02 04:59:17;;;;;;;3.53;3.03;;;;;;;;;;5011836;28;20994;-48
2023/07/02 05:01:45;;;;;;;3.43;2.63;;;;;;;;;;5011550;28;20883;-49
2023/07/02 05:04:14;;;;;;;3.40;2.87;;;;;;;;;;5011817;28;20957;-48
2023/07/02 05:06:41;;;;;;;2.97;2.67;;;;;;;;;;5011578;28;20932;-49
2023/07/02 05:09:08;;;;;;;3.70;3.20;;;;;;;;;;5011720;28;20509;-49
2023/07/02 05:11:35;;;;;;;6.37;3.53;;;;;;;;;;5011639;28;20483;-49
2023/07/02 05:14:02;;;;;;;3.07;2.57;;;;;;;;;;5011197;28;20482;-48
2023/07/02 05:16:30;;;;;;;3.67;3.17;;;;;;;;;;4995064;28;20543;-49
2023/07/02 05:18:57;;;;;;;5.33;3.17;;;;;;;;;;4992232;28;20479;-49
2023/07/02 05:21:26;;;;;;;4.00;3.47;;;;;;;;;;4991648;28;20448;-49
2023/07/02 05:23:53;;;;;;;3.00;2.70;;;;;;;;;;4991929;28;20539;-50
2023/07/02 05:26:20;;;;;;;4.13;3.60;;;;;;;;;;4991323;28;20541;-48
2023/07/02 05:28:48;;;;;;;3.60;2.63;;;;;;;;;;4991569;28;20440;-49
2023/07/02 05:31:15;;;;;;;3.50;2.47;;;;;;;;;;4991776;28;20448;-50
2023/07/02 05:33:42;;;;;;;5.90;2.70;;;;;;;;;;4991444;28;20539;-48
2023/07/02 05:36:09;;;;;;;4.67;3.13;;;;;;;;;;4991253;28;20464;-49
2023/07/02 05:38:38;;;;;;;3.57;2.90;;;;;;;;;;4991763;28;20571;-49
2023/07/02 05:41:05;;;;;;;3.00;2.57;;;;;;;;;;4991581;28;21026;-48
2023/07/02 05:43:32;;;;;;;3.20;2.50;;;;;;;;;;4991566;28;20490;-48
2023/07/02 05:46:01;;;;;;;3.67;3.03;;;;;;;;;;5012187;23;20577;-86
2023/07/02 05:48:28;;;;;;;3.07;2.60;;;;;;;;;;5009048;28;20812;-86
2023/07/02 05:50:56;;;;;;;5.07;3.60;;;;;;;;;;4995992;28;20510;-86
2023/07/02 05:53:23;;;;;;;3.97;3.20;;;;;;;;;;4995895;28;20524;-86
2023/07/02 05:55:52;;;;;;;4.17;2.70;;;;;;;;;;4995691;28;20482;-86
2023/07/02 05:58:19;;;;;;;4.60;3.27;;;;;;;;;;4995723;28;20535;-87
2023/07/02 06:00:49;;;;;;;4.20;3.07;;;;;;;;;;5029637;23;20499;-50
2023/07/02 06:03:19;;;;;;;3.43;2.80;;;;;;;;;;5014348;28;20451;-50
2023/07/02 06:05:48;;;;;;;3.40;2.90;;;;;;;;;;5004372;28;20503;-50
2023/07/02 06:08:15;;;;;;;5.00;2.80;;;;;;;;;;4994922;28;20455;-49
2023/07/02 06:10:43;;;;;;;3.77;3.00;;;;;;;;;;4994765;28;20527;-50
2023/07/02 06:13:11;;;;;;;3.63;2.87;;;;;;;;;;5005627;23;20483;-85
2023/07/02 06:15:39;;;;;;;2.90;2.33;;;;;;;;;;5014994;28;20956;-86
2023/07/02 06:18:06;;;;;;;3.43;3.07;;;;;;;;;;5015089;28;20474;-86
2023/07/02 06:20:33;;;;;;;3.87;2.77;;;;;;;;;;4999059;28;20590;-86
2023/07/02 06:23:01;;;;;;;4.00;3.07;;;;;;;;;;4995192;28;20452;-86
2023/07/02 06:25:28;;;;;;;3.83;2.80;;;;;;;;;;4995275;28;20534;-86
2023/07/02 06:27:58;;;;;;;3.73;2.63;;;;;;;;;;5029522;23;20574;-51
2023/07/02 06:30:26;;;;;;;4.80;3.13;;;;;;;;;;5014603;28;20450;-51
2023/07/02 06:32:53;;;;;;;3.00;2.63;;;;;;;;;;5013914;28;21016;-50
2023/07/02 06:35:21;;;;;;;3.87;3.10;;;;;;;;;;4994778;28;20444;-51
2023/07/02 06:37:48;;;;;;;5.30;2.90;;;;;;;;;;4994403;28;20442;-50
2023/07/02 06:40:16;;;;;;;4.07;3.37;;;;;;;;;;4994413;28;20600;-50
2023/07/02 06:42:43;;;;;;;3.80;2.57;;;;;;;;;;4994531;28;20894;-51
2023/07/02 06:45:10;;;;;;;3.90;3.10;;;;;;;;;;4994744;28;20546;-51
2023/07/02 06:47:39;;;;;;;3.70;3.20;;;;;;;;;;4994277;28;20956;-51
2023/07/02 06:50:06;;;;;;;3.20;2.90;;;;;;;;;;4994591;28;20531;-51
2023/07/02 06:52:34;;;;;;;3.80;3.10;;;;;;;;;;4994540;28;20936;-52
2023/07/02 06:55:01;;;;;;;3.90;3.30;;;;;;;;;;4994034;28;20551;-52
2023/07/02 06:57:28;;;;;;;3.47;2.60;;;;;;;;;;4994219;28;20503;-51
2023/07/02 06:59:59;;;;;;;3.77;2.93;;;;;;;;;;4993823;28;20567;-50
2023/07/02 07:02:27;;;;;;;3.70;3.07;;;;;;;;;;4996254;28;20439;-50
2023/07/02 07:04:55;;;;;;;4.70;3.23;;;;;;;;;;5002345;28;21048;-51
2023/07/02 07:07:22;;;;;;;3.20;2.90;;;;;;;;;;5003350;28;20436;-51
2023/07/02 07:09:50;;;;;;;4.07;3.30;;;;;;;;;;5004583;28;20487;-51
2023/07/02 07:12:17;;;;;;;3.70;3.20;;;;;;;;;;5002560;28;20507;-53
2023/07/02 07:14:44;;;;;;;3.40;2.80;;;;;;;;;;5003466;28;20459;-51
2023/07/02 07:17:11;;;;;;;4.17;3.43;;;;;;;;;;5001751;28;20451;-50
2023/07/02 07:19:39;;;;;;;4.30;3.20;;;;;;;;;;5013430;28;20706;-50
2023/07/02 07:22:07;;;;;;;3.73;2.80;;;;;;;;;;5012277;28;20483;-51
2023/07/02 07:24:35;;;;;;;3.00;2.47;;;;;;;;;;5013497;28;20555;-51
2023/07/02 07:27:02;;;;;;;5.33;3.20;;;;;;;;;;5012793;28;20538;-51
2023/07/02 07:29:29;;;;;;;4.77;4.37;;;;;;;;;;5013466;28;20530;-51
2023/07/02 07:31:56;;;;;;;3.80;3.20;;;;;;;;;;5013455;28;21021;-51
2023/07/02 07:34:24;;;;;;;3.97;3.07;;;;;;;;;;5012756;28;20487;-50
2023/07/02 07:36:51;;;;;;;3.93;3.53;;;;;;;;;;5009450;28;20508;-51
2023/07/02 07:39:19;;;;;;;5.00;3.40;;;;;;;;;;5002461;28;20617;-51
2023/07/02 07:41:49;;;;;;;5.30;3.70;;;;;;;;;;5002373;28;20521;-51
2023/07/02 07:44:16;;;;;;;5.20;3.00;;;;;;;;;;4999523;28;20456;-50
2023/07/02 07:46:43;;;;;;;3.53;3.00;;;;;;;;;;5002454;28;20478;-49
2023/07/02 07:49:10;;;;;;;4.93;3.70;;;;;;;;;;5003562;28;20550;-51
2023/07/02 07:51:38;;;;;;;3.90;3.50;;;;;;;;;;5001561;28;20857;-50
2023/07/02 07:54:05;;;;;;;4.40;4.00;;;;;;;;;;5002306;28;20546;-51
2023/07/02 07:56:34;;;;;;;5.83;4.60;;;;;;;;;;5003468;28;20435;-50
2023/07/02 07:59:01;;;;;;;5.40;4.37;;;;;;;;;;5002098;28;20932;-51
2023/07/02 08:01:28;;;;;;;3.60;3.10;;;;;;;;;;5001636;28;20471;-51
2023/07/02 08:03:56;;;;;;;3.53;2.90;;;;;;;;;;4999032;28;20456;-52
2023/07/02 08:06:23;;;;;;;4.77;4.37;;;;;;;;;;5002337;28;20542;-50
2023/07/02 08:08:50;;;;;;;5.53;5.00;;;;;;;;;;5003461;28;20435;-51
2023/07/02 08:11:18;;;;;;;5.23;4.43;;;;;;;;;;5000739;28;20523;-51
2023/07/02 08:13:46;;;;;;;4.77;3.60;;;;;;;;;;5002212;28;20843;-50
2023/07/02 08:16:13;;;;;;;3.83;3.47;;;;;;;;;;5002897;28;20533;-50
2023/07/02 08:18:41;;;;;;;5.20;3.97;;;;;;;;;;5002545;28;21088;-50
2023/07/02 08:21:08;;;;;;;4.17;3.77;;;;;;;;;;5001262;28;20554;-50
2023/07/02 08:23:35;;;;;;;4.47;3.97;;;;;;;;;;5003627;28;20466;-50
2023/07/02 08:26:03;;;;;;;3.67;3.17;;;;;;;;;;5001935;28;20530;-50
2023/07/02 08:28:30;;;;;;;5.60;4.30;;;;;;;;;;5000382;28;20439;-51
2023/07/02 08:30:59;;;;;;;4.73;3.83;;;;;;;;;;4991403;28;20432;-50
2023/07/02 08:33:26;;;;;;;4.90;3.87;;;;;;;;;;4990450;28;20559;-51
2023/07/02 08:35:53;;;;;;;6.77;3.40;;;;;;;;;;4990930;28;21023;-52
2023/07/02 08:38:20;;;;;;;7.40;4.70;;;;;;;;;;4986185;28;20540;-54
2023/07/02 08:40:48;;;;;;;3.90;3.43;;;;;;;;;;4990213;28;20519;-55
2023/07/02 08:43:15;;;;;;;4.70;3.83;;;;;;;;;;4985164;28;20470;-54
2023/07/02 08:45:42;;;;;;;4.27;3.47;;;;;;;;;;4982975;28;20527;-52
2023/07/02 08:48:12;;;;;;;6.73;4.90;;;;;;;;;;4985156;28;20444;-53
2023/07/02 08:50:39;;;;;;;4.13;3.00;;;;;;;;;;4982537;28;20441;-52
2023/07/02 08:53:06;;;;;;;3.60;3.30;;;;;;;;;;4987931;28;20484;-53
2023/07/02 08:55:34;;;;;;;4.20;3.80;;;;;;;;;;4986378;28;20440;-53
2023/07/02 08:58:01;;;;;;;4.27;3.60;;;;;;;;;;4984645;28;20491;-52
2023/07/02 09:00:30;;;;;;;6.10;3.90;;;;;;;;;;4985779;28;21011;-52
2023/07/02 09:02:58;;;;;;;4.37;3.70;;;;;;;;;;4982689;28;20463;-52
2023/07/02 09:05:26;;;;;;;4.10;3.60;;;;;;;;;;4985145;28;20539;-54
2023/07/02 09:07:54;;;;;;;6.30;4.30;;;;;;;;;;4984830;28;20899;-52
2023/07/02 09:10:28;;;;;;;4.67;4.13;;;;;;;;;;4996234;28;20503;-50
2023/07/02 09:13:04;;;;;;;5.47;4.23;;;;;;;;;;4988578;28;20850;-51
2023/07/02 09:15:37;;;;;;;4.20;3.50;;;;;;;;;;4988412;28;20454;-50
2023/07/02 09:18:04;;;;;;;4.57;3.73;;;;;;;;;;4987968;28;20543;-50
2023/07/02 09:20:35;;;;;;;6.53;4.07;;;;;;;;;;4984074;28;20516;-52
2023/07/02 09:23:03;;;;;;;5.40;4.90;;;;;;;;;;4985257;28;20453;-50
2023/07/02 09:25:35;;;;;;;7.07;3.70;;;;;;;;;;4987581;28;20472;-51
2023/07/02 09:28:04;;;;;;;3.87;3.50;;;;;;;;;;4985250;28;20472;-52
2023/07/02 09:30:31;;;;;;;4.17;3.40;;;;;;;;;;4986680;28;20440;-50
2023/07/02 09:33:07;;;;;;;5.70;4.57;;;;;;;;;;4987106;28;20506;-52
2023/07/02 09:35:36;;;;;;;4.63;3.60;;;;;;;;;;4984339;28;20535;-51
2023/07/02 09:38:03;;;;;;;4.43;4.03;;;;;;;;;;4985822;28;20471;-52
2023/07/02 09:40:31;;;;;;;4.47;4.07;;;;;;;;;;4985772;28;20746;-51
2023/07/02 09:42:58;;;;;;;5.10;4.30;;;;;;;;;;4986423;28;20472;-51
2023/07/02 09:45:26;;;;;;;4.50;4.10;;;;;;;;;;4985526;28;20854;-51
2023/07/02 09:47:56;;;;;;;4.73;4.07;;;;;;;;;;4985748;28;20479;-51
2023/07/02 09:50:24;;;;;;;4.70;3.90;;;;;;;;;;4987275;28;20506;-52
2023/07/02 09:52:53;;;;;;;4.50;4.10;;;;;;;;;;4997560;28;20493;-51
2023/07/02 09:55:20;;;;;;;5.33;3.93;;;;;;;;;;4998104;28;20476;-52
2023/07/02 09:57:48;;;;;;;4.90;4.27;;;;;;;;;;4996483;28;20515;-50
2023/07/02 10:00:15;;;;;;;4.80;4.27;;;;;;;;;;4997667;28;20480;-51
2023/07/02 10:02:43;;;;;;;4.67;3.93;;;;;;;;;;5000808;28;20506;-51
2023/07/02 10:05:10;;;;;;;4.40;3.70;;;;;;;;;;5007444;28;20470;-53
2023/07/02 10:07:37;;;;;;;4.53;4.03;;;;;;;;;;5007168;28;20478;-53
2023/07/02 10:10:06;;;;;;;3.53;3.23;;;;;;;;;;4988676;28;20907;-51
2023/07/02 10:12:33;;;;;;;4.87;3.67;;;;;;;;;;4988007;28;20531;-51
2023/07/02 10:15:01;;;;;;;5.40;3.50;;;;;;;;;;4988094;28;20555;-52
2023/07/02 10:17:30;;;;;;;5.23;3.63;;;;;;;;;;4987754;28;20512;-52
2023/07/02 10:19:58;;;;;;;4.27;3.80;;;;;;;;;;4987702;28;20519;-52
2023/07/02 10:22:25;;;;;;;4.27;3.87;;;;;;;;;;4987845;28;20519;-51
2023/07/02 10:24:54;;;;;;;4.30;3.77;;;;;;;;;;4987801;28;20584;-52
2023/07/02 10:27:22;;;;;;;4.33;3.50;;;;;;;;;;4987347;28;20456;-53
2023/07/02 10:29:52;;;;;;;4.33;3.90;;;;;;;;;;4988043;28;20571;-51
2023/07/02 10:32:28;;;;;;;3.40;2.60;;;;;;;;;;4987448;28;20484;-53
2023/07/02 10:34:56;;;;;;;4.73;3.63;;;;;;;;;;4989994;28;20983;-51
2023/07/02 10:37:23;;;;;;;4.07;3.47;;;;;;;;;;4993789;28;20443;-51
2023/07/02 10:39:51;;;;;;;7.90;3.40;;;;;;;;;;4994387;28;21023;-52
2023/07/02 10:42:19;;;;;;;6.30;3.07;;;;;;;;;;5007612;28;20487;-51
2023/07/02 10:44:51;;;;;;;4.97;3.03;;;;;;;;;;5009771;28;20850;-52
2023/07/02 10:47:19;;;;;;;4.77;3.00;;;;;;;;;;5010199;28;20455;-51
2023/07/02 10:49:46;;;;;;;3.47;3.13;;;;;;;;;;5002017;28;20451;-52
2023/07/02 10:52:13;;;;;;;3.60;2.93;;;;;;;;;;4990893;28;20447;-51
2023/07/02 10:54:41;;;;;;;3.27;2.20;;;;;;;;;;4990825;28;21063;-52
2023/07/02 10:57:09;;;;;;;4.53;3.50;;;;;;;;;;4990852;28;20542;-52
2023/07/02 10:59:36;;;;;;;3.17;2.73;;;;;;;;;;4991080;28;20538;-53
2023/07/02 11:02:06;;;;;;;4.13;2.47;;;;;;;;;;4990985;28;20575;-52
2023/07/02 11:04:33;;;;;;;3.80;3.17;;;;;;;;;;4990625;28;20476;-51
2023/07/02 11:07:01;;;;;;;4.00;3.43;;;;;;;;;;4990490;28;20479;-51
2023/07/02 11:09:28;;;;;;;5.57;2.93;;;;;;;;;;4990735;28;20538;-53
2023/07/02 11:11:56;;;;;;;4.77;3.00;;;;;;;;;;5003464;28;20935;-51
2023/07/02 11:14:30;;;;;;;3.83;3.00;;;;;;;;;;4998648;28;20495;-51
2023/07/02 11:16:57;;;;;;;3.30;2.90;;;;;;;;;;4990416;28;20531;-53
2023/07/02 11:19:26;;;;;;;4.70;3.00;;;;;;;;;;4998240;28;20975;-53
2023/07/02 11:21:55;;;;;;;4.10;3.30;;;;;;;;;;5007415;28;20491;-52
2023/07/02 11:24:30;;;;;;;3.80;2.40;;;;;;;;;;5009997;28;20468;-51
2023/07/02 11:26:57;;;;;;;3.37;2.57;;;;;;;;;;5009734;28;20486;-52
2023/07/02 11:29:24;;;;;;;3.63;2.10;;;;;;;;;;5009801;28;20443;-52
2023/07/02 11:31:51;;;;;;;4.03;2.70;;;;;;;;;;5010107;28;20813;-51
2023/07/02 11:34:19;;;;;;;2.63;1.67;;;;;;;;;;5008952;28;20550;-52
2023/07/02 11:36:48;;;;;;;2.90;2.13;;;;;;;;;;5009542;28;20538;-52
2023/07/02 11:39:16;;;;;;;4.10;2.43;;;;;;;;;;4998021;28;20467;-53
2023/07/02 11:41:44;;;;;;;3.10;2.10;;;;;;;;;;4989903;28;20495;-51
2023/07/02 11:44:11;;;;;;;3.60;2.80;;;;;;;;;;4990156;28;20530;-51
2023/07/02 11:46:39;;;;;;;3.20;2.33;;;;;;;;;;4989561;28;20475;-51
2023/07/02 11:49:08;;;;;;;3.07;2.20;;;;;;;;;;4989994;28;20540;-53
2023/07/02 11:51:35;;;;;;;3.80;2.63;;;;;;;;;;4989973;28;20953;-51
2023/07/02 11:54:04;;;;;;;4.17;3.00;;;;;;;;;;4990195;28;20622;-51
2023/07/02 11:56:31;;;;;;;3.33;2.30;;;;;;;;;;4989676;28;20543;-50
2023/07/02 11:58:58;;;;;;;3.80;3.03;;;;;;;;;;4989865;28;20503;-52
2023/07/02 12:01:26;;;;;;;5.00;2.87;;;;;;;;;;4989686;28;20487;-51
2023/07/02 12:03:53;;;;;;;3.33;2.17;;;;;;;;;;4990150;28;20627;-51
2023/07/02 12:06:20;;;;;;;3.07;1.93;;;;;;;;;;4989843;28;20476;-51
2023/07/02 12:08:47;;;;;;;3.87;2.63;;;;;;;;;;4989378;28;20955;-52
2023/07/02 12:11:16;;;;;;;3.30;2.33;;;;;;;;;;4998960;28;20531;-51
2023/07/02 12:13:43;;;;;;;3.60;2.60;;;;;;;;;;4997544;28;20543;-51
2023/07/02 12:16:11;;;;;;;3.97;2.30;;;;;;;;;;4999073;28;20560;-50
2023/07/02 12:18:38;;;;;;;3.90;2.97;;;;;;;;;;4999475;28;20476;-51
2023/07/02 12:21:05;;;;;;;3.57;2.57;;;;;;;;;;4997197;28;20507;-51
2023/07/02 12:23:32;;;;;;;3.93;2.80;;;;;;;;;;4998930;28;20518;-50
2023/07/02 12:28:31;;;;;;;3.77;2.90;;;;;;;;;;5037667;23;20490;-88
2023/07/02 12:30:58;;;;;;;3.60;2.00;;;;;;;;;;5023368;28;20439;-88
2023/07/02 12:33:25;;;;;;;3.13;2.47;;;;;;;;;;5021658;28;20443;-88
2023/07/02 12:35:52;;;;;;;3.77;2.93;;;;;;;;;;5024450;28;20471;-87
2023/07/02 12:38:20;;;;;;;4.33;3.23;;;;;;;;;;5002022;28;20459;-88
2023/07/02 12:40:48;;;;;;;3.80;2.83;;;;;;;;;;4998062;28;21021;-88
2023/07/02 12:43:15;;;;;;;3.60;2.50;;;;;;;;;;5014486;28;20991;-87
2023/07/02 12:45:44;;;;;;;5.13;2.90;;;;;;;;;;5013771;28;20513;-88
2023/07/02 12:48:11;;;;;;;4.43;3.70;;;;;;;;;;5013142;28;20901;-86
2023/07/02 12:50:39;;;;;;;4.13;3.10;;;;;;;;;;5013421;28;20451;-88
2023/07/02 12:53:06;;;;;;;5.20;3.13;;;;;;;;;;5012886;28;20538;-87
2023/07/02 12:55:35;;;;;;;4.77;2.97;;;;;;;;;;5010350;28;20493;-88
2023/07/02 12:58:02;;;;;;;3.40;2.63;;;;;;;;;;5001182;28;20523;-88
2023/07/02 13:00:29;;;;;;;4.10;3.00;;;;;;;;;;5002042;28;20467;-88
2023/07/02 13:02:58;;;;;;;4.80;3.20;;;;;;;;;;5007560;28;20483;-88
2023/07/02 13:05:25;;;;;;;4.30;3.00;;;;;;;;;;5001601;28;20435;-87
2023/07/02 13:07:53;;;;;;;4.27;2.70;;;;;;;;;;5001632;28;20495;-88
2023/07/02 13:10:20;;;;;;;4.70;3.40;;;;;;;;;;5000839;28;20962;-87
2023/07/02 13:12:47;;;;;;;4.73;2.60;;;;;;;;;;5003221;28;20954;-88
2023/07/02 13:15:14;;;;;;;3.23;2.13;;;;;;;;;;5002899;28;20506;-87
2023/07/02 13:17:43;;;;;;;4.63;2.73;;;;;;;;;;5000628;28;20488;-87
2023/07/02 13:20:12;;;;;;;4.37;2.87;;;;;;;;;;5001111;28;20441;-87
2023/07/02 13:22:40;;;;;;;6.20;3.27;;;;;;;;;;5001038;28;20476;-87
2023/07/02 13:25:08;;;;;;;5.00;2.90;;;;;;;;;;5002850;28;20443;-87
2023/07/02 13:27:35;;;;;;;4.53;3.37;;;;;;;;;;4999006;28;20484;-87
2023/07/02 13:30:03;;;;;;;5.07;3.60;;;;;;;;;;5000563;28;20447;-88
2023/07/02 13:32:30;;;;;;;4.53;2.63;;;;;;;;;;4999049;28;20540;-87
2023/07/02 13:34:57;;;;;;;5.73;3.23;;;;;;;;;;4996722;28;20468;-86
2023/07/02 13:37:26;;;;;;;4.83;3.37;;;;;;;;;;5001139;28;20495;-87
2023/07/02 13:39:53;;;;;;;5.17;3.30;;;;;;;;;;5000310;28;20993;-87
2023/07/02 13:42:20;;;;;;;4.83;3.33;;;;;;;;;;5000502;28;21048;-87
2023/07/02 13:44:48;;;;;;;4.90;3.43;;;;;;;;;;4999298;28;20612;-87
2023/07/02 13:47:15;;;;;;;5.90;3.50;;;;;;;;;;5003066;28;20475;-89
2023/07/02 13:49:43;;;;;;;5.17;3.27;;;;;;;;;;5001955;28;20484;-88
2023/07/02 13:52:10;;;;;;;4.13;2.97;;;;;;;;;;5000809;28;20503;-88
2023/07/02 13:54:39;;;;;;;4.63;2.73;;;;;;;;;;5002658;28;20539;-87
2023/07/02 13:57:07;;;;;;;5.20;3.63;;;;;;;;;;5001918;28;20472;-88
2023/07/02 13:59:35;;;;;;;7.10;3.63;;;;;;;;;;4999179;28;20796;-87
2023/07/02 14:02:03;;;;;;;5.00;3.53;;;;;;;;;;5001070;28;20479;-88
2023/07/02 14:04:30;;;;;;;4.93;3.10;;;;;;;;;;4995290;28;20827;-87
2023/07/02 14:06:57;;;;;;;4.90;3.60;;;;;;;;;;4997841;28;21067;-88
2023/07/02 14:09:25;;;;;;;5.30;3.53;;;;;;;;;;5003495;28;20570;-87
2023/07/02 14:11:52;;;;;;;5.00;3.60;;;;;;;;;;5002266;28;20480;-87
2023/07/02 14:14:19;;;;;;;5.73;3.43;;;;;;;;;;5001936;28;20459;-87
2023/07/02 14:16:48;;;;;;;4.93;3.83;;;;;;;;;;4999467;28;20526;-86
2023/07/02 14:19:17;;;;;;;7.03;3.70;;;;;;;;;;5003641;28;20622;-87
2023/07/02 14:21:46;;;;;;;4.60;3.30;;;;;;;;;;5000670;28;20475;-87
2023/07/02 14:24:13;;;;;;;4.83;3.40;;;;;;;;;;5003546;28;20455;-87
2023/07/02 14:26:41;;;;;;;4.67;3.23;;;;;;;;;;5002899;28;20567;-87
2023/07/02 14:29:08;;;;;;;5.70;3.30;;;;;;;;;;5001495;28;20429;-87
2023/07/02 14:31:35;;;;;;;5.77;3.80;;;;;;;;;;5003982;28;20448;-87
2023/07/02 14:34:04;;;;;;;5.67;3.70;;;;;;;;;;5000714;28;20472;-87
2023/07/02 14:36:31;;;;;;;4.90;3.30;;;;;;;;;;5004374;28;20896;-87
2023/07/02 14:38:58;;;;;;;4.93;3.40;;;;;;;;;;5002690;28;20529;-86
2023/07/02 14:41:26;;;;;;;4.60;3.40;;;;;;;;;;4995679;28;20958;-87
2023/07/02 14:43:54;;;;;;;4.77;3.27;;;;;;;;;;4993224;28;20452;-86
2023/07/02 14:46:22;;;;;;;5.20;3.33;;;;;;;;;;4993175;28;20534;-87
2023/07/02 14:48:49;;;;;;;5.70;4.40;;;;;;;;;;4992457;28;20889;-87